createdAt,value
2023-01-10T00:00:17.714Z,100997.75
2023-01-10T00:02:44.066Z,100997.16
2023-01-10T00:05:11.902Z,100995.75
2023-01-10T00:07:38.240Z,101001.97
2023-01-10T00:10:04.988Z,101003.88
2023-01-10T00:12:31.325Z,101007.81
2023-01-10T00:14:57.597Z,101015.59
2023-01-10T00:17:23.925Z,101017.88
2023-01-10T00:19:50.269Z,101025.41
2023-01-10T00:22:17.915Z,101019.16
2023-01-10T00:24:44.268Z,101034.53
2023-01-10T00:27:10.605Z,101038.56
2023-01-10T00:29:36.915Z,101039.66
2023-01-10T00:32:03.220Z,101054.38
2023-01-10T00:34:29.696Z,101063.59
2023-01-10T00:36:55.967Z,101051.59
2023-01-10T00:39:23.589Z,101056.41
2023-01-10T00:41:49.893Z,101059.50
2023-01-10T00:44:16.234Z,101060.19
2023-01-10T00:46:42.527Z,101062.94
2023-01-10T00:49:08.856Z,101063.56
2023-01-10T00:51:35.183Z,101062.38
2023-01-10T00:54:01.574Z,101075.06
2023-01-10T00:56:29.216Z,101075.91
2023-01-10T00:58:55.574Z,101079.59
2023-01-10T01:01:21.958Z,101082.69
2023-01-10T01:03:48.334Z,101087.56
2023-01-10T01:06:14.637Z,101091.88
2023-01-10T01:08:40.949Z,101092.81
2023-01-10T01:11:07.294Z,101094.00
2023-01-10T01:13:34.955Z,101100.72
2023-01-10T01:16:01.265Z,101096.53
2023-01-10T01:18:27.948Z,101099.03
2023-01-10T01:20:55.428Z,101109.19
2023-01-10T01:23:22.347Z,101105.56
2023-01-10T01:25:49.940Z,101115.34
2023-01-10T01:28:16.279Z,101124.34
2023-01-10T01:30:44.006Z,101124.50
2023-01-10T01:33:10.302Z,101141.56
2023-01-10T01:35:36.593Z,101138.94
2023-01-10T01:38:03.064Z,101137.25
2023-01-10T01:40:29.580Z,101133.88
2023-01-10T01:42:55.959Z,101136.97
2023-01-10T01:45:36.419Z,101132.09
2023-01-10T01:48:17.631Z,101138.53
2023-01-10T01:50:48.016Z,101136.69
2023-01-10T01:53:16.852Z,101139.44
2023-01-10T01:55:45.554Z,101136.22
2023-01-10T01:58:13.998Z,101149.09
2023-01-10T02:00:40.324Z,101153.19
2023-01-10T02:03:06.715Z,101166.88
2023-01-10T02:05:34.063Z,101163.38
2023-01-10T02:08:02.146Z,101165.81
2023-01-10T02:10:32.899Z,101171.47
2023-01-10T02:13:01.673Z,101179.88
2023-01-10T02:15:28.181Z,101172.81
2023-01-10T02:17:54.624Z,101171.53
2023-01-10T02:20:22.474Z,101174.66
2023-01-10T02:23:06.384Z,101184.97
2023-01-10T02:25:50.452Z,101187.47
2023-01-10T02:28:29.107Z,101193.81
2023-01-10T02:31:04.359Z,101192.16
2023-01-10T02:33:35.868Z,101193.16
2023-01-10T02:36:08.049Z,101202.22
2023-01-10T02:38:43.685Z,101197.47
2023-01-10T02:41:19.720Z,101199.28
2023-01-10T02:43:47.818Z,101197.59
2023-01-10T02:46:16.846Z,101198.44
2023-01-10T02:48:44.547Z,101198.19
2023-01-10T02:51:17.030Z,101210.41
2023-01-10T02:53:45.151Z,101194.59
2023-01-10T02:56:29.881Z,101195.69
2023-01-10T02:59:23.588Z,101203.69
2023-01-10T03:01:53.594Z,101206.66
2023-01-10T03:04:24.887Z,101218.22
2023-01-10T03:06:54.601Z,101219.53
2023-01-10T03:09:23.891Z,101223.66
2023-01-10T03:11:53.504Z,101224.63
2023-01-10T03:14:22.370Z,101234.63
2023-01-10T03:16:52.318Z,101238.00
2023-01-10T03:19:20.607Z,101239.03
2023-01-10T03:21:51.102Z,101236.75
2023-01-10T03:24:18.801Z,101244.00
2023-01-10T03:26:47.894Z,101254.84
2023-01-10T03:29:18.773Z,101261.41
2023-01-10T03:31:47.993Z,101269.19
2023-01-10T03:34:14.451Z,101267.72
2023-01-10T03:36:43.545Z,101281.81
2023-01-10T03:39:18.142Z,101277.94
2023-01-10T03:41:48.775Z,101272.56
2023-01-10T03:44:17.804Z,101275.41
2023-01-10T03:46:46.833Z,101263.72
2023-01-10T03:49:14.844Z,101266.56
2023-01-10T03:51:42.026Z,101272.56
2023-01-10T03:54:08.343Z,101280.56
2023-01-10T03:56:45.041Z,101278.88
2023-01-10T03:59:11.583Z,101278.25
2023-01-10T04:01:38.116Z,101290.66
2023-01-10T04:04:04.765Z,101287.81
2023-01-10T04:06:31.105Z,101293.28
2023-01-10T04:08:57.434Z,101296.66
2023-01-10T04:11:23.788Z,101306.13
2023-01-10T04:13:51.485Z,101299.28
2023-01-10T04:16:17.838Z,101298.00
2023-01-10T04:18:44.134Z,101301.56
2023-01-10T04:21:10.462Z,101305.88
2023-01-10T04:23:36.798Z,101304.00
2023-01-10T04:26:03.115Z,101297.69
2023-01-10T04:28:29.446Z,101305.78
2023-01-10T04:30:57.111Z,101316.09
2023-01-10T04:33:23.463Z,101313.38
2023-01-10T04:35:50.285Z,101319.69
2023-01-10T04:38:16.672Z,101320.53
2023-01-10T04:40:42.994Z,101322.31
2023-01-10T04:43:09.507Z,101321.56
2023-01-10T04:45:36.032Z,101327.16
2023-01-10T04:48:03.934Z,101324.53
2023-01-10T04:50:30.245Z,101322.00
2023-01-10T04:52:56.611Z,101323.56
2023-01-10T04:55:22.916Z,101329.06
2023-01-10T04:57:49.233Z,101325.59
2023-01-10T05:00:15.998Z,101337.69
2023-01-10T05:02:42.461Z,101345.59
2023-01-10T05:05:10.739Z,101346.53
2023-01-10T05:07:37.234Z,101348.94
2023-01-10T05:10:04.016Z,101348.94
2023-01-10T05:12:30.344Z,101340.63
2023-01-10T05:14:56.660Z,101337.47
2023-01-10T05:17:22.968Z,101341.88
2023-01-10T05:19:49.298Z,101348.09
2023-01-10T05:22:16.972Z,101345.25
2023-01-10T05:24:43.346Z,101357.56
2023-01-10T05:27:09.689Z,101373.16
2023-01-10T05:29:36.013Z,101371.38
2023-01-10T05:32:02.381Z,101381.69
2023-01-10T05:34:28.798Z,101378.09
2023-01-10T05:36:55.160Z,101385.03
2023-01-10T05:39:22.799Z,101383.78
2023-01-10T05:41:49.129Z,101389.06
2023-01-10T05:44:15.495Z,101389.34
2023-01-10T05:46:41.869Z,101397.03
2023-01-10T05:49:08.261Z,101405.34
2023-01-10T05:51:34.561Z,101390.94
2023-01-10T05:54:01.053Z,101399.22
2023-01-10T05:56:28.726Z,101401.16
2023-01-10T05:59:05.333Z,101403.16
2023-01-10T06:01:34.291Z,101407.25
2023-01-10T06:04:00.640Z,101416.13
2023-01-10T06:06:26.926Z,101425.16
2023-01-10T06:08:53.238Z,101414.31
2023-01-10T06:11:19.553Z,101417.66
2023-01-10T06:13:47.185Z,101423.75
2023-01-10T06:16:13.557Z,101416.41
2023-01-10T06:18:39.920Z,101422.72
2023-01-10T06:21:06.209Z,101420.94
2023-01-10T06:23:32.513Z,101416.97
2023-01-10T06:25:58.827Z,101425.38
2023-01-10T06:28:25.145Z,101427.28
2023-01-10T06:30:52.821Z,101430.44
2023-01-10T06:33:19.172Z,101439.06
2023-01-10T06:35:45.503Z,101436.44
2023-01-10T06:38:11.790Z,101453.28
2023-01-10T06:40:38.130Z,101458.44
2023-01-10T06:43:04.442Z,101456.97
2023-01-10T06:45:30.808Z,101463.19
2023-01-10T06:47:58.477Z,101467.38
2023-01-10T06:50:24.814Z,101466.56
2023-01-10T06:52:57.036Z,101459.59
2023-01-10T06:55:23.340Z,101468.44
2023-01-10T06:57:54.289Z,101467.91
2023-01-10T07:00:21.227Z,101478.63
2023-01-10T07:02:47.526Z,101478.94
2023-01-10T07:05:15.269Z,101483.56
2023-01-10T07:07:41.600Z,101482.94
2023-01-10T07:10:08.797Z,101485.00
2023-01-10T07:12:35.129Z,101490.56
2023-01-10T07:15:01.446Z,101499.28
2023-01-10T07:17:27.753Z,101507.41
2023-01-10T07:19:54.029Z,101513.19
2023-01-10T07:22:21.694Z,101510.66
2023-01-10T07:24:47.979Z,101512.53
2023-01-10T07:27:14.436Z,101516.03
2023-01-10T07:29:40.763Z,101514.75
2023-01-10T07:32:07.090Z,101517.28
2023-01-10T07:34:33.402Z,101527.72
2023-01-10T07:37:00.996Z,101532.22
2023-01-10T07:39:28.679Z,101527.72
2023-01-10T07:41:54.972Z,101537.06
2023-01-10T07:44:21.285Z,101548.56
2023-01-10T07:46:47.644Z,101551.06
2023-01-10T07:49:14.030Z,101554.34
2023-01-10T07:51:40.396Z,101553.81
2023-01-10T07:54:06.692Z,101548.94
2023-01-10T07:56:34.353Z,101558.25
2023-01-10T07:59:00.641Z,101562.66
2023-01-10T08:01:27.030Z,101558.53
2023-01-10T08:03:53.398Z,101560.03
2023-01-10T08:06:19.772Z,101561.91
2023-01-10T08:08:46.119Z,101556.84
2023-01-10T08:11:12.456Z,101560.31
2023-01-10T08:13:40.344Z,101566.22
2023-01-10T08:16:07.358Z,101564.22
2023-01-10T08:18:33.970Z,101569.75
2023-01-10T08:21:00.353Z,101568.34
2023-01-10T08:23:26.931Z,101565.81
2023-01-10T08:25:53.475Z,101564.69
2023-01-10T08:28:19.834Z,101563.34
2023-01-10T08:30:49.635Z,101558.06
2023-01-10T08:33:16.769Z,101560.59
2023-01-10T08:35:43.388Z,101554.31
2023-01-10T08:38:09.989Z,101559.47
2023-01-10T08:40:36.521Z,101562.53
2023-01-10T08:43:04.379Z,101566.66
2023-01-10T08:45:30.740Z,101561.31
2023-01-10T08:47:58.478Z,101561.72
2023-01-10T08:50:25.235Z,101568.59
2023-01-10T08:52:51.634Z,101561.13
2023-01-10T08:55:18.030Z,101565.84
2023-01-10T08:57:44.360Z,101561.34
2023-01-10T09:00:11.177Z,101557.88
2023-01-10T09:02:37.627Z,101568.09
2023-01-10T09:05:07.839Z,101562.84
2023-01-10T09:07:36.206Z,101555.59
2023-01-10T09:10:02.710Z,101558.00
2023-01-10T09:12:29.133Z,101562.63
2023-01-10T09:14:55.460Z,101552.84
2023-01-10T09:17:21.826Z,101552.63
2023-01-10T09:19:48.140Z,101560.94
2023-01-10T09:22:15.851Z,101563.72
2023-01-10T09:24:42.133Z,101565.19
2023-01-10T09:27:08.447Z,101562.34
2023-01-10T09:29:34.769Z,101562.00
2023-01-10T09:32:01.082Z,101558.22
2023-01-10T09:34:27.546Z,101553.59
2023-01-10T09:36:53.938Z,101551.72
2023-01-10T09:39:21.681Z,101555.19
2023-01-10T09:41:55.111Z,101555.06
2023-01-10T09:44:26.989Z,101559.81
2023-01-10T09:47:02.066Z,101563.94
2023-01-10T09:49:38.390Z,101563.69
2023-01-10T09:52:08.761Z,101559.91
2023-01-10T09:54:39.678Z,101562.56
2023-01-10T09:57:06.286Z,101562.56
2023-01-10T09:59:36.231Z,101565.09
2023-01-10T10:02:07.053Z,101566.78
2023-01-10T10:04:34.867Z,101555.78
2023-01-10T10:07:02.111Z,101553.91
2023-01-10T10:09:29.851Z,101556.19
2023-01-10T10:12:01.929Z,101560.41
2023-01-10T10:14:39.183Z,101559.38
2023-01-10T10:17:22.525Z,101546.81
2023-01-10T10:19:55.624Z,101562.41
2023-01-10T10:22:28.186Z,101548.94
2023-01-10T10:25:01.452Z,101540.06
2023-01-10T10:27:34.941Z,101525.72
2023-01-10T10:30:10.606Z,101533.19
2023-01-10T10:32:50.438Z,101520.75
2023-01-10T10:35:19.022Z,101518.84
2023-01-10T10:37:48.267Z,101515.97
2023-01-10T10:40:17.533Z,101515.00
2023-01-10T10:42:46.813Z,101513.84
2023-01-10T10:45:17.160Z,101507.72
2023-01-10T10:47:46.183Z,101510.06
2023-01-10T10:50:18.229Z,101499.34
2023-01-10T10:52:45.292Z,101502.63
2023-01-10T10:55:13.931Z,101495.66
2023-01-10T10:57:51.571Z,101490.66
2023-01-10T11:00:24.087Z,101483.47
2023-01-10T11:02:53.312Z,101482.63
2023-01-10T11:05:21.916Z,101480.72
2023-01-10T11:07:49.092Z,101471.53
2023-01-10T11:10:16.483Z,101474.19
2023-01-10T11:12:46.059Z,101474.66
2023-01-10T11:15:12.423Z,101470.13
2023-01-10T11:17:40.088Z,101475.06
2023-01-10T11:20:13.625Z,101473.84
2023-01-10T11:22:44.153Z,101475.44
2023-01-10T11:25:13.910Z,101467.50
2023-01-10T11:27:44.146Z,101467.28
2023-01-10T11:30:18.158Z,101462.50
2023-01-10T11:32:51.721Z,101467.88
2023-01-10T11:35:20.903Z,101461.75
2023-01-10T11:37:58.602Z,101469.47
2023-01-10T11:40:26.508Z,101472.94
2023-01-10T11:42:53.529Z,101465.63
2023-01-10T11:45:40.764Z,101463.97
2023-01-10T11:48:10.152Z,101458.56
2023-01-10T11:50:37.624Z,101450.66
2023-01-10T11:53:04.936Z,101454.72
2023-01-10T11:55:33.635Z,101450.53
2023-01-10T11:58:02.601Z,101445.09
2023-01-10T12:00:34.976Z,101440.56
2023-01-10T12:03:01.481Z,101435.16
2023-01-10T12:05:29.350Z,101433.25
2023-01-10T12:07:56.687Z,101432.19
2023-01-10T12:10:24.651Z,101420.78
2023-01-10T12:12:54.488Z,101421.03
2023-01-10T12:15:23.060Z,101424.72
2023-01-10T12:17:49.956Z,101420.81
2023-01-10T12:20:16.284Z,101419.00
2023-01-10T12:22:45.421Z,101421.75
2023-01-10T12:25:17.475Z,101416.47
2023-01-10T12:27:44.044Z,101408.44
2023-01-10T12:30:12.947Z,101408.78
2023-01-10T12:32:42.679Z,101398.34
2023-01-10T12:35:13.962Z,101406.03
2023-01-10T12:37:42.332Z,101398.94
2023-01-10T12:40:14.412Z,101386.34
2023-01-10T12:42:45.804Z,101382.50
2023-01-10T12:45:13.979Z,101374.81
2023-01-10T12:47:45.075Z,101372.88
2023-01-10T12:50:13.848Z,101368.56
2023-01-10T12:52:42.834Z,101361.84
2023-01-10T12:55:13.825Z,101356.19
2023-01-10T12:57:42.070Z,101355.00
2023-01-10T13:00:15.778Z,101352.34
2023-01-10T13:02:43.663Z,101351.03
2023-01-10T13:05:15.041Z,101343.34
2023-01-10T13:07:41.851Z,101345.50
2023-01-10T13:10:14.113Z,101332.88
2023-01-10T13:12:44.295Z,101334.94
2023-01-10T13:15:15.449Z,101342.00
2023-01-10T13:17:44.901Z,101327.97
2023-01-10T13:20:27.467Z,101314.41
2023-01-10T13:22:55.226Z,101315.47
2023-01-10T13:25:23.354Z,101303.81
2023-01-10T13:27:55.528Z,101304.69
2023-01-10T13:30:26.184Z,101305.13
2023-01-10T13:32:56.130Z,101304.19
2023-01-10T13:35:22.473Z,101303.59
2023-01-10T13:37:52.204Z,101300.97
2023-01-10T13:40:21.301Z,101294.44
2023-01-10T13:43:07.640Z,101283.75
2023-01-10T13:45:35.314Z,101279.31
2023-01-10T13:48:02.897Z,101280.38
2023-01-10T13:50:48.397Z,101270.06
2023-01-10T13:53:33.498Z,101275.38
2023-01-10T13:55:59.777Z,101268.97
2023-01-10T13:58:42.476Z,101262.47
2023-01-10T14:01:22.501Z,101261.75
2023-01-10T14:03:51.130Z,101260.44
2023-01-10T14:06:37.899Z,101266.03
2023-01-10T14:09:06.349Z,101265.59
2023-01-10T14:11:45.967Z,101265.59
2023-01-10T14:14:20.383Z,101259.91
2023-01-10T14:16:49.095Z,101260.44
2023-01-10T14:19:22.859Z,101258.16
2023-01-10T14:21:52.282Z,101249.88
2023-01-10T14:24:23.245Z,101252.28
2023-01-10T14:26:49.766Z,101251.09
2023-01-10T14:29:17.330Z,101249.94
2023-01-10T14:31:45.022Z,101247.16
2023-01-10T14:34:16.614Z,101245.72
2023-01-10T14:36:48.817Z,101234.69
2023-01-10T14:39:15.306Z,101236.03
2023-01-10T14:41:43.253Z,101218.38
2023-01-10T14:44:14.004Z,101218.38
2023-01-10T14:46:44.644Z,101213.56
2023-01-10T14:49:23.579Z,101218.53
2023-01-10T14:51:50.068Z,101206.91
2023-01-10T14:54:17.391Z,101196.47
2023-01-10T14:56:44.467Z,101185.56
2023-01-10T14:59:17.971Z,101174.13
2023-01-10T15:01:48.143Z,101162.50
2023-01-10T15:04:15.620Z,101152.19
2023-01-10T15:06:53.463Z,101144.97
2023-01-10T15:09:19.799Z,101136.47
2023-01-10T15:11:47.122Z,101138.88
2023-01-10T15:14:14.968Z,101136.38
2023-01-10T15:16:41.616Z,101140.94
2023-01-10T15:19:10.947Z,101127.53
2023-01-10T15:21:41.137Z,101132.94
2023-01-10T15:27:02.713Z,101110.84
2023-01-10T15:29:29.056Z,101109.88
2023-01-10T15:32:03.115Z,101099.78
2023-01-10T15:34:30.429Z,101091.16
2023-01-10T15:36:58.706Z,101094.03
2023-01-10T15:39:26.983Z,101090.22
2023-01-10T15:41:55.758Z,101089.16
2023-01-10T15:44:32.613Z,101090.72
2023-01-10T15:46:59.049Z,101075.00
2023-01-10T15:49:25.876Z,101085.06
2023-01-10T15:51:52.491Z,101082.09
2023-01-10T15:54:29.701Z,101089.28
2023-01-10T15:57:00.535Z,101095.63
2023-01-10T15:59:29.623Z,101073.56
2023-01-10T16:01:56.857Z,101063.84
2023-01-10T16:04:23.323Z,101071.97
2023-01-10T16:06:53.176Z,101063.63
2023-01-10T16:09:20.547Z,101053.19
2023-01-10T16:11:48.380Z,101049.81
2023-01-10T16:14:14.796Z,101028.59
2023-01-10T16:16:42.454Z,101030.41
2023-01-10T16:19:08.777Z,101021.53
2023-01-10T16:21:38.088Z,101029.94
2023-01-10T16:24:05.065Z,101017.56
2023-01-10T16:26:31.739Z,101020.09
2023-01-10T16:28:58.091Z,101012.28
2023-01-10T16:31:24.461Z,101013.97
2023-01-10T16:33:52.121Z,101015.31
2023-01-10T16:36:19.508Z,101009.28
2023-01-10T16:38:45.846Z,101007.16
2023-01-10T16:41:13.301Z,101002.84
2023-01-10T16:43:39.581Z,100995.25
2023-01-10T16:46:05.946Z,100986.75
2023-01-10T16:48:32.336Z,100983.16
2023-01-10T16:51:13.877Z,100974.78
2023-01-10T16:53:40.199Z,100980.78
2023-01-10T16:56:06.750Z,100969.00
2023-01-10T16:58:33.107Z,100971.63
2023-01-10T17:00:59.549Z,100973.56
2023-01-10T17:03:26.192Z,100971.19
2023-01-10T17:05:52.571Z,100968.03
2023-01-10T17:08:21.536Z,100965.91
2023-01-10T17:10:49.203Z,100968.28
2023-01-10T17:13:17.362Z,100969.28
2023-01-10T17:15:43.687Z,100962.16
2023-01-10T17:18:10.904Z,100962.31
2023-01-10T17:20:37.225Z,100962.03
2023-01-10T17:23:03.529Z,100958.84
2023-01-10T17:25:31.160Z,100958.72
2023-01-10T17:27:57.583Z,100958.84
2023-01-10T17:30:23.915Z,100951.88
2023-01-10T17:32:50.254Z,100948.97
2023-01-10T17:35:16.716Z,100944.53
2023-01-10T17:37:43.052Z,100944.53
2023-01-10T17:40:10.102Z,100940.94
2023-01-10T17:42:37.788Z,100935.53
2023-01-10T17:45:04.272Z,100929.31
2023-01-10T17:47:30.563Z,100919.59
2023-01-10T17:49:56.906Z,100909.16
2023-01-10T17:52:23.190Z,100911.19
2023-01-10T17:54:49.519Z,100907.31
2023-01-10T17:57:15.831Z,100902.50
2023-01-10T17:59:43.460Z,100909.16
2023-01-10T18:02:14.579Z,100903.59
2023-01-10T18:04:41.016Z,100898.91
2023-01-10T18:07:07.350Z,100900.75
2023-01-10T18:09:33.678Z,100906.75
2023-01-10T18:11:59.959Z,100894.22
2023-01-10T18:14:26.300Z,100882.84
2023-01-10T18:16:54.058Z,100875.75
2023-01-10T18:19:20.404Z,100879.13
2023-01-10T18:21:47.463Z,100867.09
2023-01-10T18:24:14.364Z,100855.94
2023-01-10T18:26:40.732Z,100868.22
2023-01-10T18:29:07.055Z,100855.69
2023-01-10T18:31:33.366Z,100855.03
2023-01-10T18:34:01.014Z,100855.44
2023-01-10T18:36:27.322Z,100849.19
2023-01-10T18:38:53.635Z,100845.63
2023-01-10T18:41:20.407Z,100839.53
2023-01-10T18:43:46.990Z,100843.00
2023-01-10T18:46:14.294Z,100846.09
2023-01-10T18:48:40.675Z,100836.38
2023-01-10T18:51:08.363Z,100836.78
2023-01-10T18:53:34.686Z,100825.44
2023-01-10T18:56:02.119Z,100830.59
2023-01-10T18:58:30.184Z,100827.50
2023-01-10T19:00:56.541Z,100838.63
2023-01-10T19:03:23.275Z,100835.44
2023-01-10T19:05:49.654Z,100825.25
2023-01-10T19:08:17.361Z,100821.50
2023-01-10T19:11:07.138Z,100817.91
2023-01-10T19:13:30.444Z,100821.66
2023-01-10T19:16:07.084Z,100821.38
2023-01-10T19:18:33.432Z,100823.91
2023-01-10T19:20:59.726Z,100814.16
2023-01-10T19:23:27.497Z,100812.78
2023-01-10T19:25:54.752Z,100819.19
2023-01-10T19:28:21.096Z,100812.91
2023-01-10T19:31:03.154Z,100804.59
2023-01-10T19:33:31.001Z,100808.63
2023-01-10T19:35:57.312Z,100797.50
2023-01-10T19:38:23.653Z,100801.84
2023-01-10T19:40:52.243Z,100800.47
2023-01-10T19:43:18.854Z,100797.81
2023-01-10T19:45:45.194Z,100796.16
2023-01-10T19:48:11.512Z,100791.00
2023-01-10T19:50:37.789Z,100775.28
2023-01-10T19:53:04.130Z,100781.97
2023-01-10T19:55:30.454Z,100777.53
2023-01-10T19:57:58.886Z,100770.84
2023-01-10T20:00:25.386Z,100776.56
2023-01-10T20:02:51.745Z,100776.41
2023-01-10T20:05:18.099Z,100765.97
2023-01-10T20:07:48.407Z,100761.09
2023-01-10T20:10:14.854Z,100752.19
2023-01-10T20:12:41.167Z,100749.28
2023-01-10T20:15:09.595Z,100753.59
2023-01-10T20:17:35.916Z,100743.69
2023-01-10T20:20:02.505Z,100748.59
2023-01-10T20:22:28.832Z,100752.19
2023-01-10T20:24:55.113Z,100735.50
2023-01-10T20:27:21.430Z,100726.31
2023-01-10T20:29:47.817Z,100730.34
2023-01-10T20:32:15.520Z,100731.75
2023-01-10T20:34:42.107Z,100729.66
2023-01-10T20:37:08.398Z,100736.06
2023-01-10T20:39:34.701Z,100747.03
2023-01-10T20:42:01.030Z,100736.19
2023-01-10T20:44:27.341Z,100736.88
2023-01-10T20:46:53.697Z,100739.94
2023-01-10T20:49:21.628Z,100732.25
2023-01-10T20:51:48.382Z,100720.56
2023-01-10T20:54:14.809Z,100717.47
2023-01-10T20:56:41.178Z,100725.41
2023-01-10T20:59:07.705Z,100722.25
2023-01-10T21:01:36.204Z,100715.63
2023-01-10T21:04:03.486Z,100722.31
2023-01-10T21:06:31.334Z,100715.63
2023-01-10T21:08:57.717Z,100715.38
2023-01-10T21:11:24.258Z,100713.56
2023-01-10T21:13:50.583Z,100708.81
2023-01-10T21:16:17.898Z,100703.94
2023-01-10T21:18:44.242Z,100698.78
2023-01-10T21:21:11.372Z,100696.84
2023-01-10T21:23:39.014Z,100697.13
2023-01-10T21:26:06.197Z,100695.88
2023-01-10T21:28:33.135Z,100684.31
2023-01-10T21:30:59.426Z,100673.59
2023-01-10T21:33:25.758Z,100685.69
2023-01-10T21:35:52.538Z,100676.78
2023-01-10T21:38:18.849Z,100678.31
2023-01-10T21:40:46.502Z,100665.09
2023-01-10T21:43:12.788Z,100664.53
2023-01-10T21:45:39.068Z,100664.66
2023-01-10T21:48:05.495Z,100662.03
2023-01-10T21:50:31.828Z,100656.72
2023-01-10T21:52:58.122Z,100645.81
2023-01-10T21:55:24.425Z,100643.63
2023-01-10T21:57:52.094Z,100649.75
2023-01-10T22:00:18.918Z,100650.00
2023-01-10T22:02:45.237Z,100643.56
2023-01-10T22:05:11.545Z,100646.50
2023-01-10T22:07:38.117Z,100642.16
2023-01-10T22:10:05.173Z,100631.25
2023-01-10T22:12:31.462Z,100636.81
2023-01-10T22:14:59.420Z,100627.13
2023-01-10T22:17:25.700Z,100645.44
2023-01-10T22:19:52.041Z,100624.06
2023-01-10T22:22:18.377Z,100619.63
2023-01-10T22:24:44.694Z,100625.19
2023-01-10T22:27:11.010Z,100617.53
2023-01-10T22:29:37.316Z,100618.91
2023-01-10T22:32:05.097Z,100619.41
2023-01-10T22:34:31.418Z,100613.53
2023-01-10T22:36:57.787Z,100623.53
2023-01-10T22:39:24.173Z,100611.66
2023-01-10T22:41:50.474Z,100612.19
2023-01-10T22:44:17.492Z,100612.19
2023-01-10T22:46:43.890Z,100595.16
2023-01-10T22:49:11.581Z,100602.09
2023-01-10T22:51:37.893Z,100596.53
2023-01-10T22:54:04.377Z,100596.22
2023-01-10T22:56:30.711Z,100594.69
2023-01-10T22:58:57.008Z,100595.25
2023-01-10T23:01:24.050Z,100590.78
2023-01-10T23:03:50.402Z,100577.59
2023-01-10T23:06:18.197Z,100588.72
2023-01-10T23:08:44.600Z,100589.72
2023-01-10T23:11:12.617Z,100576.97
2023-01-10T23:13:38.861Z,100570.22
2023-01-10T23:16:06.174Z,100558.16
2023-01-10T23:18:33.031Z,100567.44
2023-01-10T23:20:59.516Z,100556.88
2023-01-10T23:23:27.380Z,100556.56
2023-01-10T23:25:53.968Z,100562.34
2023-01-10T23:28:20.228Z,100556.56
2023-01-10T23:30:46.478Z,100551.44
2023-01-10T23:33:12.752Z,100551.78
2023-01-10T23:35:38.998Z,100547.84
2023-01-10T23:38:05.246Z,100546.84
2023-01-10T23:40:32.855Z,100552.84
2023-01-10T23:42:59.103Z,100544.41
2023-01-10T23:45:25.355Z,100550.91
2023-01-10T23:47:51.631Z,100550.13
2023-01-10T23:50:17.943Z,100551.41
2023-01-10T23:52:44.231Z,100541.47
2023-01-10T23:55:10.527Z,100540.66
2023-01-10T23:57:38.169Z,100538.56
